sensor_id;sensor_type;location;lat;lon;timestamp;P1;durP1;ratioP1;P2;durP2;ratioP2
11749;SDS011;5932;42.656;23.236;2022-08-03T00:02:06;0.75;;;0.75;;
11749;SDS011;5932;42.656;23.236;2022-08-03T00:04:32;0.52;;;0.52;;
11749;SDS011;5932;42.656;23.236;2022-08-03T00:06:59;1.13;;;0.82;;
11749;SDS011;5932;42.656;23.236;2022-08-03T00:09:26;1.45;;;0.80;;
11749;SDS011;5932;42.656;23.236;2022-08-03T00:11:53;0.80;;;0.80;;
11749;SDS011;5932;42.656;23.236;2022-08-03T00:14:19;1.23;;;0.88;;
11749;SDS011;5932;42.656;23.236;2022-08-03T00:16:47;0.70;;;0.55;;
11749;SDS011;5932;42.656;23.236;2022-08-03T00:19:14;1.08;;;0.85;;
11749;SDS011;5932;42.656;23.236;2022-08-03T00:21:41;0.68;;;0.68;;
11749;SDS011;5932;42.656;23.236;2022-08-03T00:24:08;1.88;;;0.68;;
11749;SDS011;5932;42.656;23.236;2022-08-03T00:26:34;0.68;;;0.68;;
11749;SDS011;5932;42.656;23.236;2022-08-03T00:29:02;2.25;;;0.68;;
11749;SDS011;5932;42.656;23.236;2022-08-03T00:31:28;0.90;;;0.82;;
11749;SDS011;5932;42.656;23.236;2022-08-03T00:33:57;0.75;;;0.75;;
11749;SDS011;5932;42.656;23.236;2022-08-03T00:36:23;0.77;;;0.70;;
11749;SDS011;5932;42.656;23.236;2022-08-03T00:38:50;0.70;;;0.70;;
11749;SDS011;5932;42.656;23.236;2022-08-03T00:41:17;0.60;;;0.60;;
11749;SDS011;5932;42.656;23.236;2022-08-03T00:43:44;0.90;;;0.77;;
11749;SDS011;5932;42.656;23.236;2022-08-03T00:46:11;1.70;;;0.90;;
11749;SDS011;5932;42.656;23.236;2022-08-03T00:48:38;1.45;;;1.02;;
11749;SDS011;5932;42.656;23.236;2022-08-03T00:51:06;1.77;;;0.93;;
11749;SDS011;5932;42.656;23.236;2022-08-03T00:53:33;1.00;;;1.00;;
11749;SDS011;5932;42.656;23.236;2022-08-03T00:56:01;1.65;;;0.82;;
11749;SDS011;5932;42.656;23.236;2022-08-03T00:58:28;0.80;;;0.80;;
11749;SDS011;5932;42.656;23.236;2022-08-03T01:00:55;1.20;;;1.10;;
11749;SDS011;5932;42.656;23.236;2022-08-03T01:03:22;0.80;;;0.80;;
11749;SDS011;5932;42.656;23.236;2022-08-03T01:05:51;0.80;;;0.80;;
11749;SDS011;5932;42.656;23.236;2022-08-03T01:08:27;1.70;;;1.10;;
11749;SDS011;5932;42.656;23.236;2022-08-03T01:11:02;1.00;;;1.00;;
11749;SDS011;5932;42.656;23.236;2022-08-03T01:13:37;1.05;;;0.85;;
11749;SDS011;5932;42.656;23.236;2022-08-03T01:16:11;1.35;;;1.15;;
11749;SDS011;5932;42.656;23.236;2022-08-03T01:18:44;1.13;;;1.02;;
11749;SDS011;5932;42.656;23.236;2022-08-03T01:21:19;2.40;;;1.20;;
11749;SDS011;5932;42.656;23.236;2022-08-03T01:23:55;1.10;;;1.00;;
11749;SDS011;5932;42.656;23.236;2022-08-03T01:26:47;1.25;;;1.15;;
11749;SDS011;5932;42.656;23.236;2022-08-03T01:29:39;3.92;;;1.00;;
11749;SDS011;5932;42.656;23.236;2022-08-03T01:32:18;1.35;;;1.20;;
11749;SDS011;5932;42.656;23.236;2022-08-03T01:34:56;0.93;;;0.93;;
11749;SDS011;5932;42.656;23.236;2022-08-03T01:37:31;1.30;;;1.10;;
11749;SDS011;5932;42.656;23.236;2022-08-03T01:40:04;2.10;;;1.10;;
11749;SDS011;5932;42.656;23.236;2022-08-03T01:42:33;1.10;;;1.10;;
11749;SDS011;5932;42.656;23.236;2022-08-03T01:45:04;2.33;;;1.27;;
11749;SDS011;5932;42.656;23.236;2022-08-03T01:47:33;1.35;;;1.25;;
11749;SDS011;5932;42.656;23.236;2022-08-03T01:50:01;1.88;;;1.08;;
11749;SDS011;5932;42.656;23.236;2022-08-03T01:52:30;1.23;;;1.13;;
11749;SDS011;5932;42.656;23.236;2022-08-03T01:54:58;2.45;;;1.40;;
11749;SDS011;5932;42.656;23.236;2022-08-03T01:57:28;1.20;;;1.10;;
11749;SDS011;5932;42.656;23.236;2022-08-03T01:59:56;1.58;;;1.48;;
11749;SDS011;5932;42.656;23.236;2022-08-03T02:02:27;2.38;;;1.25;;
11749;SDS011;5932;42.656;23.236;2022-08-03T02:04:56;1.10;;;1.10;;
11749;SDS011;5932;42.656;23.236;2022-08-03T02:07:24;1.38;;;1.27;;
11749;SDS011;5932;42.656;23.236;2022-08-03T02:09:53;1.92;;;1.27;;
11749;SDS011;5932;42.656;23.236;2022-08-03T02:12:22;1.50;;;1.30;;
11749;SDS011;5932;42.656;23.236;2022-08-03T02:14:53;1.75;;;1.40;;
11749;SDS011;5932;42.656;23.236;2022-08-03T02:17:22;1.38;;;1.27;;
11749;SDS011;5932;42.656;23.236;2022-08-03T02:19:53;1.90;;;1.70;;
11749;SDS011;5932;42.656;23.236;2022-08-03T02:22:23;1.10;;;1.10;;
11749;SDS011;5932;42.656;23.236;2022-08-03T02:24:50;1.92;;;1.17;;
11749;SDS011;5932;42.656;23.236;2022-08-03T02:27:19;1.10;;;1.00;;
11749;SDS011;5932;42.656;23.236;2022-08-03T02:29:48;1.33;;;1.23;;
11749;SDS011;5932;42.656;23.236;2022-08-03T02:32:19;1.27;;;1.10;;
11749;SDS011;5932;42.656;23.236;2022-08-03T02:34:49;1.17;;;1.10;;
11749;SDS011;5932;42.656;23.236;2022-08-03T02:37:19;1.88;;;1.15;;
11749;SDS011;5932;42.656;23.236;2022-08-03T02:39:49;1.42;;;1.17;;
11749;SDS011;5932;42.656;23.236;2022-08-03T02:42:17;3.60;;;1.40;;
11749;SDS011;5932;42.656;23.236;2022-08-03T02:44:47;1.42;;;1.30;;
11749;SDS011;5932;42.656;23.236;2022-08-03T02:47:16;1.40;;;1.30;;
11749;SDS011;5932;42.656;23.236;2022-08-03T02:49:46;1.17;;;1.15;;
11749;SDS011;5932;42.656;23.236;2022-08-03T02:52:14;2.55;;;1.30;;
11749;SDS011;5932;42.656;23.236;2022-08-03T02:54:44;1.55;;;1.30;;
11749;SDS011;5932;42.656;23.236;2022-08-03T02:57:13;1.45;;;1.20;;
11749;SDS011;5932;42.656;23.236;2022-08-03T02:59:43;1.30;;;1.20;;
11749;SDS011;5932;42.656;23.236;2022-08-03T03:02:11;3.05;;;1.30;;
11749;SDS011;5932;42.656;23.236;2022-08-03T03:04:40;1.42;;;1.30;;
11749;SDS011;5932;42.656;23.236;2022-08-03T03:07:08;1.63;;;1.33;;
11749;SDS011;5932;42.656;23.236;2022-08-03T03:09:37;2.00;;;1.20;;
11749;SDS011;5932;42.656;23.236;2022-08-03T03:12:06;1.42;;;1.25;;
11749;SDS011;5932;42.656;23.236;2022-08-03T03:14:35;1.35;;;1.23;;
11749;SDS011;5932;42.656;23.236;2022-08-03T03:17:03;1.50;;;1.40;;
11749;SDS011;5932;42.656;23.236;2022-08-03T03:19:31;2.20;;;1.20;;
11749;SDS011;5932;42.656;23.236;2022-08-03T03:21:59;2.13;;;1.60;;
11749;SDS011;5932;42.656;23.236;2022-08-03T03:24:27;1.80;;;1.60;;
11749;SDS011;5932;42.656;23.236;2022-08-03T03:26:55;1.60;;;1.50;;
11749;SDS011;5932;42.656;23.236;2022-08-03T03:29:23;1.40;;;1.30;;
11749;SDS011;5932;42.656;23.236;2022-08-03T03:31:51;3.25;;;1.50;;
11749;SDS011;5932;42.656;23.236;2022-08-03T03:34:18;3.30;;;1.50;;
11749;SDS011;5932;42.656;23.236;2022-08-03T03:36:45;2.25;;;1.52;;
11749;SDS011;5932;42.656;23.236;2022-08-03T03:39:12;1.55;;;1.45;;
11749;SDS011;5932;42.656;23.236;2022-08-03T03:41:39;1.60;;;1.50;;
11749;SDS011;5932;42.656;23.236;2022-08-03T03:44:06;1.67;;;1.45;;
11749;SDS011;5932;42.656;23.236;2022-08-03T03:46:34;2.53;;;1.50;;
11749;SDS011;5932;42.656;23.236;2022-08-03T03:49:03;2.83;;;1.50;;
11749;SDS011;5932;42.656;23.236;2022-08-03T03:51:31;3.50;;;1.67;;
11749;SDS011;5932;42.656;23.236;2022-08-03T03:53:58;2.50;;;1.60;;
11749;SDS011;5932;42.656;23.236;2022-08-03T03:56:26;2.38;;;1.40;;
11749;SDS011;5932;42.656;23.236;2022-08-03T03:58:54;1.50;;;1.40;;
11749;SDS011;5932;42.656;23.236;2022-08-03T04:01:21;2.70;;;1.70;;
11749;SDS011;5932;42.656;23.236;2022-08-03T04:03:49;2.58;;;1.70;;
11749;SDS011;5932;42.656;23.236;2022-08-03T04:06:16;2.58;;;1.50;;
11749;SDS011;5932;42.656;23.236;2022-08-03T04:09:01;2.63;;;1.80;;
11749;SDS011;5932;42.656;23.236;2022-08-03T04:11:46;2.38;;;1.70;;
11749;SDS011;5932;42.656;23.236;2022-08-03T04:14:17;2.55;;;1.40;;
11749;SDS011;5932;42.656;23.236;2022-08-03T04:16:46;3.42;;;1.63;;
11749;SDS011;5932;42.656;23.236;2022-08-03T04:19:18;2.13;;;1.67;;
11749;SDS011;5932;42.656;23.236;2022-08-03T04:21:51;1.85;;;1.65;;
11749;SDS011;5932;42.656;23.236;2022-08-03T04:24:21;4.65;;;1.90;;
11749;SDS011;5932;42.656;23.236;2022-08-03T04:26:50;1.70;;;1.60;;
11749;SDS011;5932;42.656;23.236;2022-08-03T04:29:18;1.90;;;1.73;;
11749;SDS011;5932;42.656;23.236;2022-08-03T04:31:47;3.08;;;1.90;;
11749;SDS011;5932;42.656;23.236;2022-08-03T04:34:15;1.80;;;1.70;;
11749;SDS011;5932;42.656;23.236;2022-08-03T04:36:47;2.70;;;1.70;;
11749;SDS011;5932;42.656;23.236;2022-08-03T04:39:17;2.10;;;1.60;;
11749;SDS011;5932;42.656;23.236;2022-08-03T04:41:50;3.30;;;1.70;;
11749;SDS011;5932;42.656;23.236;2022-08-03T04:44:20;4.30;;;1.83;;
11749;SDS011;5932;42.656;23.236;2022-08-03T04:46:49;2.55;;;1.80;;
11749;SDS011;5932;42.656;23.236;2022-08-03T04:49:17;4.70;;;1.80;;
11749;SDS011;5932;42.656;23.236;2022-08-03T04:51:46;2.15;;;1.90;;
11749;SDS011;5932;42.656;23.236;2022-08-03T04:54:14;5.38;;;1.60;;
11749;SDS011;5932;42.656;23.236;2022-08-03T04:56:41;3.90;;;1.73;;
11749;SDS011;5932;42.656;23.236;2022-08-03T04:59:08;2.03;;;1.77;;
11749;SDS011;5932;42.656;23.236;2022-08-03T05:01:35;3.28;;;2.10;;
11749;SDS011;5932;42.656;23.236;2022-08-03T05:04:02;4.78;;;2.35;;
11749;SDS011;5932;42.656;23.236;2022-08-03T05:06:29;4.72;;;3.08;;
11749;SDS011;5932;42.656;23.236;2022-08-03T05:08:57;6.00;;;3.72;;
11749;SDS011;5932;42.656;23.236;2022-08-03T05:11:24;3.20;;;2.90;;
11749;SDS011;5932;42.656;23.236;2022-08-03T05:13:51;3.08;;;2.38;;
11749;SDS011;5932;42.656;23.236;2022-08-03T05:16:18;2.72;;;1.90;;
11749;SDS011;5932;42.656;23.236;2022-08-03T05:18:44;2.03;;;1.83;;
11749;SDS011;5932;42.656;23.236;2022-08-03T05:21:11;2.00;;;1.80;;
11749;SDS011;5932;42.656;23.236;2022-08-03T05:23:40;5.57;;;2.00;;
11749;SDS011;5932;42.656;23.236;2022-08-03T05:26:09;2.92;;;2.03;;
11749;SDS011;5932;42.656;23.236;2022-08-03T05:28:37;4.07;;;2.10;;
11749;SDS011;5932;42.656;23.236;2022-08-03T05:31:03;4.18;;;2.20;;
11749;SDS011;5932;42.656;23.236;2022-08-03T05:33:30;7.47;;;2.55;;
11749;SDS011;5932;42.656;23.236;2022-08-03T05:35:57;6.75;;;2.38;;
11749;SDS011;5932;42.656;23.236;2022-08-03T05:38:25;5.40;;;2.58;;
11749;SDS011;5932;42.656;23.236;2022-08-03T05:40:52;5.65;;;2.30;;
11749;SDS011;5932;42.656;23.236;2022-08-03T05:43:20;6.85;;;2.75;;
11749;SDS011;5932;42.656;23.236;2022-08-03T05:45:47;3.88;;;2.38;;
11749;SDS011;5932;42.656;23.236;2022-08-03T05:48:14;6.47;;;2.53;;
11749;SDS011;5932;42.656;23.236;2022-08-03T05:50:40;3.05;;;2.45;;
11749;SDS011;5932;42.656;23.236;2022-08-03T05:53:07;3.33;;;2.40;;
11749;SDS011;5932;42.656;23.236;2022-08-03T05:55:34;4.68;;;2.42;;
11749;SDS011;5932;42.656;23.236;2022-08-03T05:58:01;8.68;;;2.60;;
11749;SDS011;5932;42.656;23.236;2022-08-03T06:00:29;5.50;;;2.47;;
11749;SDS011;5932;42.656;23.236;2022-08-03T06:02:56;5.30;;;2.53;;
11749;SDS011;5932;42.656;23.236;2022-08-03T06:05:23;4.35;;;2.40;;
11749;SDS011;5932;42.656;23.236;2022-08-03T06:07:51;6.28;;;2.35;;
11749;SDS011;5932;42.656;23.236;2022-08-03T06:10:18;4.05;;;2.40;;
11749;SDS011;5932;42.656;23.236;2022-08-03T06:12:46;4.78;;;2.13;;
11749;SDS011;5932;42.656;23.236;2022-08-03T06:15:13;6.68;;;2.40;;
11749;SDS011;5932;42.656;23.236;2022-08-03T06:17:45;4.28;;;2.55;;
11749;SDS011;5932;42.656;23.236;2022-08-03T06:20:15;5.05;;;2.33;;
11749;SDS011;5932;42.656;23.236;2022-08-03T06:22:43;8.02;;;2.65;;
11749;SDS011;5932;42.656;23.236;2022-08-03T06:25:10;3.53;;;2.33;;
11749;SDS011;5932;42.656;23.236;2022-08-03T06:27:36;5.78;;;1.98;;
11749;SDS011;5932;42.656;23.236;2022-08-03T06:30:05;4.63;;;2.00;;
11749;SDS011;5932;42.656;23.236;2022-08-03T06:32:32;5.53;;;3.80;;
11749;SDS011;5932;42.656;23.236;2022-08-03T06:35:01;8.13;;;7.25;;
11749;SDS011;5932;42.656;23.236;2022-08-03T06:37:28;11.07;;;6.53;;
11749;SDS011;5932;42.656;23.236;2022-08-03T06:39:54;5.65;;;3.20;;
11749;SDS011;5932;42.656;23.236;2022-08-03T06:42:22;4.97;;;2.30;;
11749;SDS011;5932;42.656;23.236;2022-08-03T06:44:48;6.75;;;2.70;;
11749;SDS011;5932;42.656;23.236;2022-08-03T06:47:15;4.68;;;3.20;;
11749;SDS011;5932;42.656;23.236;2022-08-03T06:49:42;7.40;;;4.38;;
11749;SDS011;5932;42.656;23.236;2022-08-03T06:52:10;4.00;;;2.50;;
11749;SDS011;5932;42.656;23.236;2022-08-03T06:54:37;5.15;;;2.70;;
11749;SDS011;5932;42.656;23.236;2022-08-03T06:57:06;4.43;;;2.13;;
11749;SDS011;5932;42.656;23.236;2022-08-03T06:59:35;6.68;;;2.58;;
11749;SDS011;5932;42.656;23.236;2022-08-03T07:02:03;4.25;;;2.38;;
11749;SDS011;5932;42.656;23.236;2022-08-03T07:04:30;4.50;;;2.42;;
11749;SDS011;5932;42.656;23.236;2022-08-03T07:06:57;3.53;;;1.98;;
11749;SDS011;5932;42.656;23.236;2022-08-03T07:09:25;6.53;;;1.90;;
11749;SDS011;5932;42.656;23.236;2022-08-03T07:11:52;6.13;;;2.22;;
11749;SDS011;5932;42.656;23.236;2022-08-03T07:14:19;6.63;;;2.00;;
11749;SDS011;5932;42.656;23.236;2022-08-03T07:16:46;2.08;;;1.90;;
11749;SDS011;5932;42.656;23.236;2022-08-03T07:19:13;2.70;;;2.17;;
11749;SDS011;5932;42.656;23.236;2022-08-03T07:21:39;5.80;;;2.00;;
11749;SDS011;5932;42.656;23.236;2022-08-03T07:24:06;4.10;;;1.90;;
11749;SDS011;5932;42.656;23.236;2022-08-03T07:26:34;2.70;;;1.95;;
11749;SDS011;5932;42.656;23.236;2022-08-03T07:29:01;2.63;;;1.83;;
11749;SDS011;5932;42.656;23.236;2022-08-03T07:31:28;3.35;;;1.90;;
11749;SDS011;5932;42.656;23.236;2022-08-03T07:33:55;1.80;;;1.55;;
11749;SDS011;5932;42.656;23.236;2022-08-03T07:36:21;2.28;;;1.58;;
11749;SDS011;5932;42.656;23.236;2022-08-03T07:38:48;4.30;;;3.08;;
11749;SDS011;5932;42.656;23.236;2022-08-03T07:41:15;2.13;;;2.00;;
11749;SDS011;5932;42.656;23.236;2022-08-03T07:43:43;1.95;;;1.83;;
11749;SDS011;5932;42.656;23.236;2022-08-03T07:46:10;1.80;;;1.55;;
11749;SDS011;5932;42.656;23.236;2022-08-03T07:48:37;3.13;;;1.63;;
11749;SDS011;5932;42.656;23.236;2022-08-03T07:51:04;4.85;;;1.60;;
11749;SDS011;5932;42.656;23.236;2022-08-03T07:53:30;2.40;;;1.65;;
11749;SDS011;5932;42.656;23.236;2022-08-03T07:55:57;2.03;;;1.58;;
11749;SDS011;5932;42.656;23.236;2022-08-03T07:58:24;1.75;;;1.48;;
11749;SDS011;5932;42.656;23.236;2022-08-03T08:00:52;3.58;;;1.98;;
11749;SDS011;5932;42.656;23.236;2022-08-03T08:03:19;16.50;;;6.82;;
11749;SDS011;5932;42.656;23.236;2022-08-03T08:05:47;12.88;;;4.72;;
11749;SDS011;5932;42.656;23.236;2022-08-03T08:08:13;3.15;;;1.58;;
11749;SDS011;5932;42.656;23.236;2022-08-03T08:10:40;2.45;;;2.00;;
11749;SDS011;5932;42.656;23.236;2022-08-03T08:13:07;2.53;;;1.65;;
11749;SDS011;5932;42.656;23.236;2022-08-03T08:15:34;4.57;;;1.80;;
11749;SDS011;5932;42.656;23.236;2022-08-03T08:18:02;17.45;;;3.85;;
11749;SDS011;5932;42.656;23.236;2022-08-03T08:20:29;3.03;;;1.60;;
11749;SDS011;5932;42.656;23.236;2022-08-03T08:22:58;6.22;;;2.25;;
11749;SDS011;5932;42.656;23.236;2022-08-03T08:25:26;5.00;;;1.58;;
11749;SDS011;5932;42.656;23.236;2022-08-03T08:27:53;1.63;;;1.50;;
11749;SDS011;5932;42.656;23.236;2022-08-03T08:30:20;4.50;;;2.00;;
11749;SDS011;5932;42.656;23.236;2022-08-03T08:32:48;3.58;;;1.73;;
11749;SDS011;5932;42.656;23.236;2022-08-03T08:35:17;2.50;;;1.50;;
11749;SDS011;5932;42.656;23.236;2022-08-03T08:37:44;1.95;;;1.48;;
11749;SDS011;5932;42.656;23.236;2022-08-03T08:40:11;1.45;;;1.35;;
11749;SDS011;5932;42.656;23.236;2022-08-03T08:42:39;2.95;;;1.40;;
11749;SDS011;5932;42.656;23.236;2022-08-03T08:45:08;1.63;;;1.52;;
11749;SDS011;5932;42.656;23.236;2022-08-03T08:47:37;3.05;;;2.08;;
11749;SDS011;5932;42.656;23.236;2022-08-03T08:50:07;1.70;;;1.60;;
11749;SDS011;5932;42.656;23.236;2022-08-03T08:52:38;5.00;;;1.90;;
11749;SDS011;5932;42.656;23.236;2022-08-03T08:55:07;5.43;;;1.60;;
11749;SDS011;5932;42.656;23.236;2022-08-03T08:57:36;3.72;;;1.70;;
11749;SDS011;5932;42.656;23.236;2022-08-03T09:00:05;5.25;;;1.92;;
11749;SDS011;5932;42.656;23.236;2022-08-03T09:02:35;3.67;;;1.88;;
11749;SDS011;5932;42.656;23.236;2022-08-03T09:05:02;4.07;;;1.70;;
11749;SDS011;5932;42.656;23.236;2022-08-03T09:07:30;3.75;;;2.20;;
11749;SDS011;5932;42.656;23.236;2022-08-03T09:09:58;1.88;;;1.77;;
11749;SDS011;5932;42.656;23.236;2022-08-03T09:12:24;2.28;;;1.60;;
11749;SDS011;5932;42.656;23.236;2022-08-03T09:14:51;3.53;;;1.70;;
11749;SDS011;5932;42.656;23.236;2022-08-03T09:17:20;3.42;;;1.48;;
11749;SDS011;5932;42.656;23.236;2022-08-03T09:20:03;2.20;;;1.60;;
11749;SDS011;5932;42.656;23.236;2022-08-03T09:22:32;3.80;;;1.63;;
11749;SDS011;5932;42.656;23.236;2022-08-03T09:25:01;6.65;;;1.58;;
11749;SDS011;5932;42.656;23.236;2022-08-03T09:27:30;1.80;;;1.48;;
11749;SDS011;5932;42.656;23.236;2022-08-03T09:30:11;2.05;;;1.42;;
11749;SDS011;5932;42.656;23.236;2022-08-03T09:32:39;2.17;;;1.42;;
11749;SDS011;5932;42.656;23.236;2022-08-03T09:35:06;3.63;;;1.88;;
11749;SDS011;5932;42.656;23.236;2022-08-03T09:37:34;1.70;;;1.60;;
11749;SDS011;5932;42.656;23.236;2022-08-03T09:40:02;3.72;;;1.80;;
11749;SDS011;5932;42.656;23.236;2022-08-03T09:42:30;1.88;;;1.50;;
11749;SDS011;5932;42.656;23.236;2022-08-03T09:44:59;1.77;;;1.67;;
11749;SDS011;5932;42.656;23.236;2022-08-03T09:47:26;1.70;;;1.60;;
11749;SDS011;5932;42.656;23.236;2022-08-03T09:49:56;2.38;;;1.48;;
11749;SDS011;5932;42.656;23.236;2022-08-03T09:52:29;2.92;;;1.55;;
11749;SDS011;5932;42.656;23.236;2022-08-03T09:54:56;1.60;;;1.50;;
11749;SDS011;5932;42.656;23.236;2022-08-03T09:57:26;1.73;;;1.50;;
11749;SDS011;5932;42.656;23.236;2022-08-03T10:00:04;2.42;;;1.50;;
11749;SDS011;5932;42.656;23.236;2022-08-03T10:02:34;3.05;;;1.52;;
11749;SDS011;5932;42.656;23.236;2022-08-03T10:05:01;4.20;;;1.73;;
11749;SDS011;5932;42.656;23.236;2022-08-03T10:07:28;1.50;;;1.40;;
11749;SDS011;5932;42.656;23.236;2022-08-03T10:09:56;3.20;;;1.80;;
11749;SDS011;5932;42.656;23.236;2022-08-03T10:12:26;2.22;;;1.70;;
11749;SDS011;5932;42.656;23.236;2022-08-03T10:14:53;2.38;;;1.58;;
11749;SDS011;5932;42.656;23.236;2022-08-03T10:17:21;1.73;;;1.60;;
11749;SDS011;5932;42.656;23.236;2022-08-03T10:19:49;2.20;;;1.63;;
11749;SDS011;5932;42.656;23.236;2022-08-03T10:22:17;1.92;;;1.75;;
11749;SDS011;5932;42.656;23.236;2022-08-03T10:24:50;2.80;;;1.90;;
11749;SDS011;5932;42.656;23.236;2022-08-03T10:27:19;2.25;;;1.85;;
11749;SDS011;5932;42.656;23.236;2022-08-03T10:29:51;2.40;;;1.90;;
11749;SDS011;5932;42.656;23.236;2022-08-03T10:32:21;3.83;;;2.08;;
11749;SDS011;5932;42.656;23.236;2022-08-03T10:34:53;3.13;;;2.35;;
11749;SDS011;5932;42.656;23.236;2022-08-03T10:37:29;2.47;;;2.15;;
11749;SDS011;5932;42.656;23.236;2022-08-03T10:39:57;2.28;;;2.08;;
11749;SDS011;5932;42.656;23.236;2022-08-03T10:42:25;2.38;;;2.17;;
11749;SDS011;5932;42.656;23.236;2022-08-03T10:44:59;4.80;;;2.40;;
11749;SDS011;5932;42.656;23.236;2022-08-03T10:47:29;5.55;;;2.10;;
11749;SDS011;5932;42.656;23.236;2022-08-03T10:49:57;2.20;;;2.03;;
11749;SDS011;5932;42.656;23.236;2022-08-03T10:52:25;10.00;;;2.22;;
11749;SDS011;5932;42.656;23.236;2022-08-03T10:54:52;1.77;;;1.67;;
11749;SDS011;5932;42.656;23.236;2022-08-03T10:57:46;1.95;;;1.85;;
11749;SDS011;5932;42.656;23.236;2022-08-03T11:00:19;2.92;;;2.10;;
11749;SDS011;5932;42.656;23.236;2022-08-03T11:05:42;4.65;;;1.83;;
11749;SDS011;5932;42.656;23.236;2022-08-03T11:08:28;3.67;;;1.75;;
11749;SDS011;5932;42.656;23.236;2022-08-03T11:10:57;3.00;;;1.70;;
11749;SDS011;5932;42.656;23.236;2022-08-03T11:13:27;3.45;;;1.60;;
11749;SDS011;5932;42.656;23.236;2022-08-03T11:16:00;2.45;;;2.08;;
11749;SDS011;5932;42.656;23.236;2022-08-03T11:18:54;1.75;;;1.65;;
11749;SDS011;5932;42.656;23.236;2022-08-03T11:21:26;1.90;;;1.80;;
11749;SDS011;5932;42.656;23.236;2022-08-03T11:27:24;4.03;;;2.30;;
11749;SDS011;5932;42.656;23.236;2022-08-03T11:29:57;2.97;;;2.00;;
11749;SDS011;5932;42.656;23.236;2022-08-03T11:32:51;2.05;;;1.95;;
11749;SDS011;5932;42.656;23.236;2022-08-03T11:35:25;2.17;;;2.00;;
11749;SDS011;5932;42.656;23.236;2022-08-03T11:38:07;1.63;;;1.50;;
11749;SDS011;5932;42.656;23.236;2022-08-03T11:40:36;1.58;;;1.40;;
11749;SDS011;5932;42.656;23.236;2022-08-03T11:43:08;4.47;;;1.55;;
11749;SDS011;5932;42.656;23.236;2022-08-03T11:45:57;2.67;;;1.30;;
11749;SDS011;5932;42.656;23.236;2022-08-03T11:48:27;1.50;;;1.40;;
11749;SDS011;5932;42.656;23.236;2022-08-03T11:50:59;2.85;;;1.35;;
11749;SDS011;5932;42.656;23.236;2022-08-03T11:53:26;1.40;;;1.30;;
11749;SDS011;5932;42.656;23.236;2022-08-03T11:55:53;2.67;;;1.40;;
11749;SDS011;5932;42.656;23.236;2022-08-03T11:58:24;3.22;;;1.38;;
11749;SDS011;5932;42.656;23.236;2022-08-03T12:00:52;1.40;;;1.27;;
11749;SDS011;5932;42.656;23.236;2022-08-03T12:03:30;2.55;;;1.42;;
11749;SDS011;5932;42.656;23.236;2022-08-03T12:05:58;1.42;;;1.33;;
11749;SDS011;5932;42.656;23.236;2022-08-03T12:08:30;1.50;;;1.40;;
11749;SDS011;5932;42.656;23.236;2022-08-03T12:10:59;2.15;;;1.30;;
11749;SDS011;5932;42.656;23.236;2022-08-03T12:13:36;1.50;;;1.30;;
11749;SDS011;5932;42.656;23.236;2022-08-03T12:16:07;1.67;;;1.30;;
11749;SDS011;5932;42.656;23.236;2022-08-03T12:18:35;2.80;;;1.20;;
11749;SDS011;5932;42.656;23.236;2022-08-03T12:21:03;1.30;;;1.20;;
11749;SDS011;5932;42.656;23.236;2022-08-03T12:23:31;2.28;;;1.98;;
11749;SDS011;5932;42.656;23.236;2022-08-03T12:26:00;1.38;;;1.27;;
11749;SDS011;5932;42.656;23.236;2022-08-03T12:28:29;1.45;;;1.35;;
11749;SDS011;5932;42.656;23.236;2022-08-03T12:30:59;2.20;;;1.35;;
11749;SDS011;5932;42.656;23.236;2022-08-03T12:33:27;3.08;;;1.40;;
11749;SDS011;5932;42.656;23.236;2022-08-03T12:36:02;1.40;;;1.30;;
11749;SDS011;5932;42.656;23.236;2022-08-03T12:38:32;1.50;;;1.40;;
11749;SDS011;5932;42.656;23.236;2022-08-03T12:41:00;2.25;;;1.17;;
11749;SDS011;5932;42.656;23.236;2022-08-03T12:43:29;2.25;;;1.33;;
11749;SDS011;5932;42.656;23.236;2022-08-03T12:46:06;2.20;;;1.25;;
11749;SDS011;5932;42.656;23.236;2022-08-03T12:48:35;1.55;;;1.30;;
11749;SDS011;5932;42.656;23.236;2022-08-03T12:51:09;1.48;;;1.35;;
11749;SDS011;5932;42.656;23.236;2022-08-03T12:53:36;1.48;;;1.38;;
11749;SDS011;5932;42.656;23.236;2022-08-03T12:56:03;1.60;;;1.50;;
11749;SDS011;5932;42.656;23.236;2022-08-03T12:58:32;3.17;;;1.73;;
11749;SDS011;5932;42.656;23.236;2022-08-03T13:01:02;3.55;;;1.65;;
11749;SDS011;5932;42.656;23.236;2022-08-03T13:03:37;2.28;;;1.38;;
11749;SDS011;5932;42.656;23.236;2022-08-03T13:06:11;3.15;;;1.40;;
11749;SDS011;5932;42.656;23.236;2022-08-03T13:08:38;2.00;;;1.65;;
11749;SDS011;5932;42.656;23.236;2022-08-03T13:11:21;1.40;;;1.30;;
11749;SDS011;5932;42.656;23.236;2022-08-03T13:13:50;1.38;;;1.27;;
11749;SDS011;5932;42.656;23.236;2022-08-03T13:16:18;1.60;;;1.30;;
11749;SDS011;5932;42.656;23.236;2022-08-03T13:18:46;2.10;;;1.55;;
11749;SDS011;5932;42.656;23.236;2022-08-03T13:21:14;2.95;;;1.50;;
11749;SDS011;5932;42.656;23.236;2022-08-03T13:23:42;2.95;;;1.65;;
11749;SDS011;5932;42.656;23.236;2022-08-03T13:26:09;1.40;;;1.30;;
11749;SDS011;5932;42.656;23.236;2022-08-03T13:28:36;1.50;;;1.40;;
11749;SDS011;5932;42.656;23.236;2022-08-03T13:31:03;2.42;;;1.60;;
11749;SDS011;5932;42.656;23.236;2022-08-03T13:33:31;1.95;;;1.33;;
11749;SDS011;5932;42.656;23.236;2022-08-03T13:35:58;1.70;;;1.60;;
11749;SDS011;5932;42.656;23.236;2022-08-03T13:38:26;1.63;;;1.50;;
11749;SDS011;5932;42.656;23.236;2022-08-03T13:40:53;1.98;;;1.50;;
11749;SDS011;5932;42.656;23.236;2022-08-03T13:43:20;2.42;;;1.35;;
11749;SDS011;5932;42.656;23.236;2022-08-03T13:45:46;4.97;;;1.60;;
11749;SDS011;5932;42.656;23.236;2022-08-03T13:48:13;1.85;;;1.30;;
11749;SDS011;5932;42.656;23.236;2022-08-03T13:50:40;1.75;;;1.30;;
11749;SDS011;5932;42.656;23.236;2022-08-03T13:53:06;1.73;;;1.50;;
11749;SDS011;5932;42.656;23.236;2022-08-03T13:55:35;4.20;;;1.95;;
11749;SDS011;5932;42.656;23.236;2022-08-03T13:58:01;1.42;;;1.33;;
11749;SDS011;5932;42.656;23.236;2022-08-03T14:00:28;1.73;;;1.60;;
11749;SDS011;5932;42.656;23.236;2022-08-03T14:02:56;1.45;;;1.35;;
11749;SDS011;5932;42.656;23.236;2022-08-03T14:05:23;1.50;;;1.40;;
11749;SDS011;5932;42.656;23.236;2022-08-03T14:07:50;3.63;;;1.75;;
11749;SDS011;5932;42.656;23.236;2022-08-03T14:10:17;1.35;;;1.23;;
11749;SDS011;5932;42.656;23.236;2022-08-03T14:12:45;2.65;;;1.70;;
11749;SDS011;5932;42.656;23.236;2022-08-03T14:15:12;1.67;;;1.58;;
11749;SDS011;5932;42.656;23.236;2022-08-03T14:17:39;3.80;;;1.65;;
11749;SDS011;5932;42.656;23.236;2022-08-03T14:20:06;2.03;;;1.77;;
11749;SDS011;5932;42.656;23.236;2022-08-03T14:22:33;1.70;;;1.60;;
11749;SDS011;5932;42.656;23.236;2022-08-03T14:25:00;1.50;;;1.40;;
11749;SDS011;5932;42.656;23.236;2022-08-03T14:27:27;1.60;;;1.50;;
11749;SDS011;5932;42.656;23.236;2022-08-03T14:29:55;3.00;;;1.65;;
11749;SDS011;5932;42.656;23.236;2022-08-03T14:32:24;1.90;;;1.65;;
11749;SDS011;5932;42.656;23.236;2022-08-03T14:34:51;3.33;;;1.33;;
11749;SDS011;5932;42.656;23.236;2022-08-03T14:37:18;2.42;;;1.50;;
11749;SDS011;5932;42.656;23.236;2022-08-03T14:39:45;1.90;;;1.80;;
11749;SDS011;5932;42.656;23.236;2022-08-03T14:42:12;1.67;;;1.58;;
11749;SDS011;5932;42.656;23.236;2022-08-03T14:44:40;5.28;;;2.30;;
11749;SDS011;5932;42.656;23.236;2022-08-03T14:47:10;1.90;;;1.80;;
11749;SDS011;5932;42.656;23.236;2022-08-03T14:49:37;4.90;;;1.77;;
11749;SDS011;5932;42.656;23.236;2022-08-03T14:52:03;1.92;;;1.77;;
11749;SDS011;5932;42.656;23.236;2022-08-03T14:54:30;1.98;;;1.83;;
11749;SDS011;5932;42.656;23.236;2022-08-03T14:56:58;2.42;;;1.42;;
11749;SDS011;5932;42.656;23.236;2022-08-03T14:59:25;3.75;;;1.35;;
11749;SDS011;5932;42.656;23.236;2022-08-03T15:01:52;1.50;;;1.40;;
11749;SDS011;5932;42.656;23.236;2022-08-03T15:04:21;1.85;;;1.40;;
11749;SDS011;5932;42.656;23.236;2022-08-03T15:06:47;3.50;;;1.55;;